Kezdőlap
METAR-TAF:

METAR-TAF

Repülőterek :

Coral Harbour, Nunavut, Kanada

földrajzi szélesség: 64-12N, földrajzi hosszúság: 083-22W, magasság: 64 m

Jelenlegi meteorológiai megfigyelések

A jelentés 39 perccel ezelõtt készült, 12:00 UTC
Északi szél 11 kt
Hőmérséklet -36°C
Páratartalom 66%
Légköri nyomás 1006 hPa
Látótávolság: 24.1 km
Derült ég
Jégtű

METAR: CYZS 181200Z 01011KT 15SM IC SKC M36/M40 A2970 RMK SLP071

Idő: 07:39 (12:39 UTC)

Előrejelzés

A jelentés 6 órával és 1 perccel ezelõtt készült, 06:38 UTC
Az előrejelzés 18-én 07 óra UTC és 18-én 19 óra UTC között érvényes
Észak-északnyugati szél 10 kt
Látótávolság: 10 km
Derült ég

TAF: CYZS 180638Z 1807/1819 33010KT P6SM SKC RMK NXT FCST BY 181300Z

Meteorológiai megfigyelések és előrejelzések több, mint 4000 repülőtéren (METAR és TAF jelentéseket).

A térképen piros és sárga pontok jelzik az elérhető meteorológiai állomásokat.

Mozgassa az egeret a pont fölött, hogy megjelenjen az állomás neve.

Azután kattintson az időjárási megfigyelések és előrejelzések megtekintéséhez.

A térkép megváltoztatása: kattintson a fekete keresztel jelölt zöld gombra ráközelítéshez, a vonallal jelölt zöld gombra távolításhoz, vagy a zöld nyilakra a szomszédos térképek eléréséhez.


METAR-TAF: